M I D A S
Marine Information and Data Acquisition System
Tripno 357 of the Zeeleeuw from 2002-11-08 08:37:10 to 2002-11-08 11:57:04
Back to CruiseResearch ActivitiesStationsMapUnderway DataData graphs

EquipmentUnitsComment
TimeDGPSUTC
LatitudeDGPSDM.mWGS84
LongitudeDGPSDM.mWGS84
TemperatureSBE03/SBE38deg celciusITS90
ConductivitySBE21S/mITS90
SalinitySBE21 Practical Salinity Units
ChlorophylAChelsea fluorimeterg/lCalibrated in Aceton
Missing or incorrect values are displayed as -999
Sea surface data collected by the RV Zeeleeuw from 2002-11-08 08:37:10 to 2002-11-08 11:57:04
Time Latitude Longitude Temperature Conductivity Salinity ChlorophylA
2002-11-08 08:38:11 51°13.767 2°55.696 -999 3.741525 27.40973  
2002-11-08 08:39:13 51°13.858 2°55.617 -999 3.741525 27.413061  
2002-11-08 08:40:13 51°13.97 2°55.532 -999 3.740999 27.416391  
2002-11-08 08:41:13 51°14.09 2°55.443 -999 3.740788 27.411344  
2002-11-08 08:42:13 51°14.203 2°55.336 -999 3.740472 27.414485  
2002-11-08 08:43:12 51°14.297 2°55.187 -999 3.740261 27.414675  
2002-11-08 08:44:14 51°14.396 2°54.986 -999 3.740261 27.417056  
2002-11-08 08:45:14 51°14.4 2°54.718 -999 3.74005 27.421058  
2002-11-08 08:46:13 51°14.353 2°54.39 -999 3.739523 27.419628  
2002-11-08 08:47:13 51°14.242 2°54.084 -999 3.739207 27.414672  
2002-11-08 08:48:13 51°14.141 2°53.766 -999 3.738997 27.424872  
2002-11-08 08:49:13 51°14.039 2°53.438 -999 3.738575 27.420009  
2002-11-08 08:50:13 51°13.941 2°53.104 -999 3.737837 27.419247  
2002-11-08 08:51:14 51°13.838 2°52.761 -999 3.736889 27.419153  
2002-11-08 08:52:14 51°13.739 2°52.423 -999 3.736151 27.40647  
2002-11-08 08:53:14 51°13.64 2°52.087 -999 3.735414 27.406183  
2002-11-08 08:54:14 51°13.533 2°51.756 26.654265 3.734465 27.422787  
2002-11-08 08:55:14 51°13.418 2°51.432 27.007239 3.734044 27.416009  
2002-11-08 08:56:14 51°13.302 2°51.109 28.580115 3.733833 27.414769  
2002-11-08 08:57:14 51°13.183 2°50.775 27.91355 3.733517 27.414579  
2002-11-08 08:58:12 51°13.066 2°50.44 27.514223 3.73299 27.41458  
2002-11-08 08:59:14 51°12.939 2°50.079 27.463326 3.732252 27.412863  
2002-11-08 09:00:12 51°12.819 2°49.739 28.497262 3.73162 27.412006  
2002-11-08 09:01:12 51°12.696 2°49.387 27.993138 3.730883 27.410766  
2002-11-08 09:02:14 51°12.57 2°49.023 27.800858 3.729934 27.411152  
2002-11-08 09:03:14 51°12.448 2°48.67 26.888382 3.729196 27.401791  
2002-11-08 09:04:13 51°12.329 2°48.324 27.278966 3.728564 27.40571  
2002-11-08 09:05:14 51°12.208 2°47.965 27.41254 3.728248 27.405042  
2002-11-08 09:06:14 51°12.108 2°47.598 27.488359 3.7273 27.4126  
2002-11-08 09:07:14 51°12.021 2°47.222 27.661756 3.726562 27.408013  
2002-11-08 09:08:14 51°11.933 2°46.845 27.408742 3.72593 27.404286  
2002-11-08 09:09:14 51°11.846 2°46.469 27.907419 3.725508 27.405149  
2002-11-08 09:10:12 51°11.759 2°46.105 27.536395 3.724771 27.407737  
2002-11-08 09:11:14 51°11.67 2°45.716 28.532674 3.724033 27.406498  
2002-11-08 09:12:14 51°11.583 2°45.338 28.024913 3.723085 27.404494  
2002-11-08 09:13:13 51°11.499 2°44.968 27.695964 3.722347 27.403734  
2002-11-08 09:14:12 51°11.413 2°44.596 28.119433 3.72161 27.403931  
2002-11-08 09:15:14 51°11.324 2°44.203 28.336656 3.720661 27.403843  
2002-11-08 09:16:12 51°11.259 2°43.827 27.725575 3.719502 27.400595  
2002-11-08 09:17:13 51°11.197 2°43.428 27.013224 3.71887 27.401655  
2002-11-08 09:18:14 51°11.137 2°43.035 26.014265 3.717816 27.399268  
2002-11-08 09:19:12 51°11.112 2°42.792 26.811763 3.717079 27.398028  
2002-11-08 09:20:14 51°11.096 2°42.683 26.619535 3.716341 27.399187  
2002-11-08 09:21:15 51°11.089 2°42.663 24.526215 3.715393 27.397661  
2002-11-08 09:22:12 51°11.085 2°42.644 24.749563 3.714655 27.399781  
2002-11-08 09:23:12 51°11.083 2°42.624 24.671133 3.713812 27.3996  
2002-11-08 09:24:12 51°11.09 2°42.589 24.303894 3.712864 27.399036  
2002-11-08 09:25:12 51°11.111 2°42.534 24.036468 3.711916 27.398472  
2002-11-08 09:26:12 51°11.139 2°42.478 12.21928 3.442963 27.422553  
2002-11-08 09:27:12 51°11.164 2°42.436 12.256544 3.891908 33.570028  
2002-11-08 09:28:14 51°11.181 2°42.396 12.250154 3.909619 33.803452  
2002-11-08 09:29:12 51°11.191 2°42.363 12.315753 3.910462 33.82295  
2002-11-08 09:30:13 51°11.198 2°42.333 12.322228 3.910251 33.827313  
2002-11-08 09:31:12 51°11.202 2°42.305 12.331056 3.912676 33.863515  
2002-11-08 09:32:12 51°11.204 2°42.276 12.237915 3.914468 33.875827  
2002-11-08 09:33:13 51°11.206 2°42.248 12.302937 3.913941 33.868604  
2002-11-08 09:34:12 51°11.209 2°42.223 12.332278 3.912149 33.861988  
2002-11-08 09:35:13 51°11.211 2°42.199 12.172465 3.918053 33.933249  
2002-11-08 09:36:12 51°11.214 2°42.177 12.280424 3.912888 33.896911  
2002-11-08 09:37:14 51°11.214 2°42.158 12.169833 3.91974 33.973845  
2002-11-08 09:38:12 51°11.213 2°42.142 12.013086 3.919424 33.973649  
2002-11-08 09:39:12 51°11.213 2°42.129 12.038236 3.920162 33.969338  
2002-11-08 09:40:12 51°11.213 2°42.118 12.036735 3.924062 33.996303  
2002-11-08 09:41:12 51°11.211 2°42.106 12.036371 3.923746 33.999686  
2002-11-08 09:42:12 51°11.211 2°42.093 12.041828 3.923851 34.004283  
2002-11-08 09:43:12 51°11.211 2°42.08 12.034234 3.924378 34.010094  
2002-11-08 09:44:14 51°11.212 2°42.065 12.03196 3.923957 34.008166  
2002-11-08 09:45:14 51°11.214 2°42.049 12.031551 3.924168 34.013784  
2002-11-08 09:46:14 51°11.216 2°42.03 12.038963 3.925116 34.021524  
2002-11-08 09:47:12 51°11.216 2°42.012 12.041055 3.925538 34.022019  
2002-11-08 09:48:14 51°11.217 2°41.993 12.040691 3.927541 34.032069  
2002-11-08 09:49:14 51°11.217 2°41.977 12.039327 3.927646 34.041685  
2002-11-08 09:50:14 51°11.218 2°41.961 12.05924 3.928173 34.03675  
2002-11-08 09:51:14 51°11.219 2°41.944 12.046238 3.929017 34.043468  
2002-11-08 09:52:14 51°11.221 2°41.927 12.044328 3.92986 34.056636  
2002-11-08 09:53:14 51°11.223 2°41.91 12.045056 3.931231 34.061281  
2002-11-08 09:54:14 51°11.225 2°41.893 12.050239 3.930598 34.058751  
2002-11-08 09:55:12 51°11.227 2°41.875 12.060467 3.932074 34.068715  
2002-11-08 09:56:13 51°11.229 2°41.858 12.059649 3.934077 34.078753  
2002-11-08 09:57:14 51°11.229 2°41.842 12.071012 3.934393 34.090414  
2002-11-08 09:58:14 51°11.228 2°41.829 12.071375 3.936712 34.101351  
2002-11-08 09:59:14 51°11.228 2°41.814 12.083736 3.937029 34.09867  
2002-11-08 10:00:14 51°11.227 2°41.802 12.08101 3.939137 34.111151  
2002-11-08 10:01:14 51°11.228 2°41.79 12.080873 3.939348 34.117492  
2002-11-08 10:02:14 51°11.228 2°41.777 12.086599 3.940402 34.125524  
2002-11-08 10:03:14 51°11.229 2°41.763 12.086826 3.942089 34.136797  
2002-11-08 10:04:12 51°11.23 2°41.748 12.087826 3.942405 34.139135  
2002-11-08 10:05:14 51°11.23 2°41.734 12.125209 3.942827 34.14608  
2002-11-08 10:06:14 51°11.231 2°41.721 12.088916 3.943881 34.156983  
2002-11-08 10:07:14 51°11.232 2°41.708 12.095731 3.945357 34.165498  
2002-11-08 10:08:14 51°11.233 2°41.696 12.093914 3.946095 34.173345  
2002-11-08 10:09:14 51°11.234 2°41.684 12.097276 3.947571 34.184012  
2002-11-08 10:10:14 51°11.235 2°41.672 12.102227 3.947992 34.188805  
2002-11-08 10:11:14 51°11.235 2°41.663 12.107088 3.948625 34.190605  
2002-11-08 10:12:14 51°11.235 2°41.654 12.111903 3.949574 34.195459  
2002-11-08 10:13:14 51°11.237 2°41.638 12.115718 3.950206 34.198695  
2002-11-08 10:14:14 51°11.242 2°41.611 12.124347 3.951049 34.204685  
2002-11-08 10:15:14 51°11.249 2°41.569 12.121349 3.952631 34.207742  
2002-11-08 10:16:14 51°11.257 2°41.517 12.1258 3.953263 34.211695  
2002-11-08 10:17:14 51°11.265 2°41.464 12.128434 3.954634 34.223491  
2002-11-08 10:18:14 51°11.275 2°41.408 12.13193 3.954739 34.221634  
2002-11-08 10:19:14 51°11.286 2°41.352 12.134473 3.955055 34.223251  
2002-11-08 10:20:14 51°11.3 2°41.3 12.135744 3.956742 34.233068  
2002-11-08 10:21:14 51°11.316 2°41.256 12.134336 3.957164 34.240013  
2002-11-08 10:22:14 51°11.334 2°41.215 12.126708 3.956953 34.241572  
2002-11-08 10:23:14 51°11.359 2°41.174 12.123166 3.957586 34.250556  
2002-11-08 10:24:14 51°11.402 2°41.178 12.12412 3.957164 34.252957  
2002-11-08 10:25:12 51°11.405 2°41.273 12.11649 3.957691 34.25517  
2002-11-08 10:26:14 51°11.385 2°41.331 12.112947 3.95748 34.257451  
2002-11-08 10:27:14 51°11.359 2°41.36 12.113174 3.95748 34.259609  
2002-11-08 10:28:12 51°11.335 2°41.373 12.11272 3.956848 34.2535  
2002-11-08 10:29:14 51°11.311 2°41.383 12.110858 3.956426 34.252304  
2002-11-08 10:30:14 51°11.288 2°41.391 12.113129 3.956532 34.251164  
2002-11-08 10:31:14 51°11.26 2°41.407 12.113038 3.956848 34.251341  
2002-11-08 10:32:14 51°11.226 2°41.427 12.118034 3.956426 34.24583  
2002-11-08 10:33:14 51°11.216 2°41.427 12.12303 3.956321 34.241935  
2002-11-08 10:34:14 51°11.206 2°41.428 12.12085 3.956953 34.245167  
2002-11-08 10:35:12 51°11.195 2°41.432 12.123802 3.956637 34.242832  
2002-11-08 10:36:12 51°11.183 2°41.434 12.119987 3.95611 34.238461  
2002-11-08 10:37:14 51°11.172 2°41.434 12.11817 3.956004 34.238162  
2002-11-08 10:38:14 51°11.162 2°41.434 12.119033 3.955688 34.236546  
2002-11-08 10:39:14 51°11.154 2°41.435 12.117671 3.955583 34.23409  
2002-11-08 10:40:14 51°11.146 2°41.434 12.115627 3.955793 34.236845  
2002-11-08 10:41:14 51°11.139 2°41.432 12.117171 3.955477 34.23451  
2002-11-08 10:42:14 51°11.133 2°41.43 12.118079 3.955266 34.233192  
2002-11-08 10:43:14 51°11.129 2°41.429 12.114128 3.95495 34.231576  
2002-11-08 10:44:14 51°11.124 2°41.429 12.116445 3.95495 34.232295  
2002-11-08 10:45:14 51°11.12 2°41.431 12.115582 3.955372 34.236367  
2002-11-08 10:46:14 51°11.115 2°41.433 12.116445 3.955477 34.237386  
2002-11-08 10:47:14 51°11.109 2°41.436 12.115491 3.955793 34.241159  
2002-11-08 10:48:14 51°11.101 2°41.439 12.113084 3.955056 34.23547  
2002-11-08 10:49:14 51°11.094 2°41.442 12.110358 3.955056 34.236189  
2002-11-08 10:50:14 51°11.087 2°41.445 12.112902 3.95495 34.237328  
2002-11-08 10:51:12 51°11.081 2°41.446 12.111585 3.955161 34.236488  
2002-11-08 10:52:14 51°11.074 2°41.447 12.113038 3.955266 34.237507  
2002-11-08 10:53:14 51°11.069 2°41.448 12.108042 3.954634 34.232835  
2002-11-08 10:54:14 51°11.064 2°41.448 12.108042 3.954634 34.234993  
2002-11-08 10:55:12 51°11.058 2°41.448 12.11113 3.954528 34.233975  
2002-11-08 10:56:14 51°11.049 2°41.455 12.110222 3.95495 34.23589  
2002-11-08 10:57:14 51°11.033 2°41.475 12.10727 3.954739 34.236011  
2002-11-08 10:58:14 51°10.997 2°41.526 12.095277 3.953896 34.229303  
2002-11-08 10:59:14 51°10.947 2°41.647 12.042737 3.949152 34.204323  
2002-11-08 11:00:14 51°10.935 2°41.842 11.760191 3.927225 34.067731  
2002-11-08 11:01:14 51°10.989 2°42.1 11.733473 3.858286 33.639854  
2002-11-08 11:02:14 51°11.039 2°42.405 11.812727 3.865559 33.679789  
2002-11-08 11:03:14 51°11.094 2°42.73 11.800954 3.880844 33.784557  
2002-11-08 11:04:14 51°11.155 2°43.065 11.831522 3.881792 33.796629  
2002-11-08 11:05:14 51°11.217 2°43.403 11.609471 3.895707 33.890801  
2002-11-08 11:06:13 51°11.277 2°43.733 11.569001 3.833517 33.50744  
2002-11-08 11:07:14 51°11.338 2°44.074 11.575595 3.825085 33.453848  
2002-11-08 11:08:14 51°11.403 2°44.407 11.585806 3.821712 33.411004  
2002-11-08 11:09:14 51°11.47 2°44.739 11.589148 3.821395 33.399377  
2002-11-08 11:10:14 51°11.538 2°45.067 11.565612 3.816968 33.359829  
2002-11-08 11:11:14 51°11.604 2°45.402 11.531989 3.804109 33.261608  
2002-11-08 11:12:14 51°11.671 2°45.732 11.536388 3.789459 33.14018  
2002-11-08 11:13:14 51°11.753 2°46.054 11.509396 3.780289 33.065715  
2002-11-08 11:14:14 51°11.851 2°46.366 11.517233 3.782924 33.094917  
2002-11-08 11:15:14 51°11.946 2°46.681 11.507287 3.782925 33.100576  
2002-11-08 11:16:14 51°12.04 2°46.994 11.511367 3.77776 33.050964  
2002-11-08 11:17:14 51°12.134 2°47.308 11.524107 3.778181 33.040949  
2002-11-08 11:18:14 51°12.228 2°47.622 11.489775 3.766588 32.944262  
2002-11-08 11:19:14 51°12.321 2°47.939 11.487391 3.759843 32.887018  
2002-11-08 11:20:14 51°12.416 2°48.25 11.464324 3.748776 32.794704  
2002-11-08 11:21:14 51°12.507 2°48.564 11.455563 3.738659 32.706693  
2002-11-08 11:22:14 51°12.601 2°48.877 11.458269 3.727909 32.62089  
2002-11-08 11:23:14 51°12.695 2°49.198 11.450012 3.736551 32.691066  
2002-11-08 11:24:14 51°12.79 2°49.516 11.408205 3.726012 32.605908  
2002-11-08 11:25:14 51°12.886 2°49.835 11.397829 3.710942 32.496764  
2002-11-08 11:26:14 51°12.976 2°50.149 11.390712 3.704303 32.436254  
2002-11-08 11:27:14 51°13.069 2°50.464 11.383181 3.697664 32.37922  
2002-11-08 11:28:14 51°13.16 2°50.784 11.384145 3.697769 32.382329  
2002-11-08 11:29:14 51°13.264 2°51.097 11.377854 3.696505 32.373481  
2002-11-08 11:30:14 51°13.364 2°51.408 11.377073 3.699666 32.407066  
2002-11-08 11:31:14 51°13.469 2°51.715 11.382768 3.705462 32.460771  
2002-11-08 11:32:14 51°13.581 2°52.017 11.373307 3.699877 32.407729  
2002-11-08 11:33:14 51°13.695 2°52.323 11.371102 3.705989 32.472176  
2002-11-08 11:34:14 51°13.804 2°52.632 11.366187 3.69935 32.411633  
2002-11-08 11:35:14 51°13.92 2°52.937 11.348316 3.698402 32.409342  
2002-11-08 11:36:14 51°14.034 2°53.242 11.32497 3.688074 32.323249  
2002-11-08 11:37:14 51°14.143 2°53.55 11.313984 3.667631 32.147496  
2002-11-08 11:38:14 51°14.255 2°53.856 11.298352 3.659727 32.083567  
2002-11-08 11:39:14 51°14.33 2°54.17 11.289108 3.657198 32.063739  
2002-11-08 11:40:14 51°14.365 2°54.481 11.276782 3.650033 32.006968  
2002-11-08 11:41:14 51°14.378 2°54.799 11.303731 3.673638 32.226831  
2002-11-08 11:42:14 51°14.337 2°55.096 11.27577 3.681963 32.301818  
2002-11-08 11:43:13 51°14.245 2°55.293 11.123708 3.147703 27.259306  
2002-11-08 11:44:15 51°14.159 2°55.385 11.053637 2.713061 23.205312  
2002-11-08 11:45:15 51°14.088 2°55.441 11.087321 2.822369 24.208371  
2002-11-08 11:46:12 51°14.026 2°55.487 11.07731 2.697282 23.044026  
2002-11-08 11:47:13 51°13.959 2°55.539 11.048791 2.600519 22.15638  
2002-11-08 11:48:12 51°13.902 2°55.582 11.390896 2.635646 22.484861  
2002-11-08 11:49:13 51°13.848 2°55.622 11.180346 2.681084 22.9127  
2002-11-08 11:50:13 51°13.8 2°55.66 11.643467 2.726841 23.302759  
2002-11-08 11:51:13 51°13.76 2°55.705 11.383916 2.713376 23.154781  
2002-11-08 11:52:13 51°13.729 2°55.765 11.147033 2.282407 19.205814  
2002-11-08 11:53:14 51°13.7 2°55.829 11.149153 2.150549 18.023773  
2002-11-08 11:54:14 51°13.676 2°55.891 11.225935 2.201501 18.490276  
2002-11-08 11:55:13 51°13.667 2°55.939 11.395396 2.197193 18.459504  
2002-11-08 11:56:14 51°13.662 2°55.952 11.153854 2.242057 18.871702